createdAt,value
2022-10-07T00:00:07.865Z,66.12
2022-10-07T00:05:08.357Z,66.13
2022-10-07T00:10:08.032Z,66.14
2022-10-07T00:15:07.687Z,66.13
2022-10-07T00:20:08.362Z,66.15
2022-10-07T00:25:08.021Z,66.15
2022-10-07T00:30:07.767Z,66.15
2022-10-07T00:35:08.421Z,66.14
2022-10-07T00:40:08.120Z,66.13
2022-10-07T00:45:07.815Z,66.13
2022-10-07T00:50:08.509Z,66.13
2022-10-07T00:55:08.172Z,66.13
2022-10-07T01:00:07.916Z,66.15
2022-10-07T01:05:08.623Z,66.14
2022-10-07T01:10:08.345Z,66.13
2022-10-07T01:15:08.040Z,66.15
2022-10-07T01:20:07.741Z,66.13
2022-10-07T01:25:08.409Z,66.13
2022-10-07T01:30:08.098Z,66.14
2022-10-07T01:35:07.791Z,66.16
2022-10-07T01:40:08.489Z,66.16
2022-10-07T01:45:08.209Z,66.17
2022-10-07T01:50:07.854Z,66.16
2022-10-07T01:55:16.820Z,66.15
2022-10-07T02:00:08.505Z,66.16
2022-10-07T02:05:08.202Z,66.18
2022-10-07T02:10:07.889Z,66.18
2022-10-07T02:15:08.582Z,66.19
2022-10-07T02:20:08.305Z,66.19
2022-10-07T02:25:08.014Z,66.2
2022-10-07T02:30:07.715Z,66.2
2022-10-07T02:35:08.406Z,66.22
2022-10-07T02:40:12.268Z,66.21
2022-10-07T02:45:08.384Z,66.23
2022-10-07T02:50:08.087Z,66.22
2022-10-07T02:55:07.808Z,66.23
2022-10-07T03:00:11.111Z,66.24
2022-10-07T03:05:08.164Z,66.24
2022-10-07T03:10:07.850Z,66.27
2022-10-07T03:15:08.552Z,66.28
2022-10-07T03:20:08.244Z,66.29
2022-10-07T03:25:07.893Z,66.28
2022-10-07T03:30:08.572Z,66.3
2022-10-07T03:35:08.305Z,66.31
2022-10-07T03:40:08.019Z,66.28
2022-10-07T03:45:07.738Z,66.33
2022-10-07T03:50:08.412Z,66.34
2022-10-07T03:55:08.079Z,66.32
2022-10-07T04:00:07.807Z,66.33
2022-10-07T04:05:02.763Z,66.34
2022-10-07T04:10:02.597Z,66.34
2022-10-07T04:15:02.483Z,66.36
2022-10-07T04:20:02.289Z,66.35
2022-10-07T04:25:08.855Z,66.37
2022-10-07T04:30:02.668Z,66.35
2022-10-07T04:35:02.496Z,66.37
2022-10-07T04:40:02.423Z,66.38
2022-10-07T04:45:02.238Z,66.43
2022-10-07T04:50:02.085Z,66.49
2022-10-07T04:55:01.915Z,66.52
2022-10-07T05:00:02.830Z,66.54
2022-10-07T05:05:02.566Z,66.58
2022-10-07T05:10:02.353Z,66.59
2022-10-07T05:15:02.188Z,66.64
2022-10-07T05:20:02.095Z,66.64
2022-10-07T05:25:01.912Z,66.68
2022-10-07T05:30:02.822Z,66.71
2022-10-07T05:35:02.673Z,66.75
2022-10-07T05:40:01.762Z,66.79
2022-10-07T05:45:02.691Z,66.81
2022-10-07T05:50:02.493Z,66.82
2022-10-07T05:55:02.259Z,66.87
2022-10-07T06:00:01.987Z,66.91
2022-10-07T06:05:01.974Z,66.93
2022-10-07T06:10:01.920Z,66.96
2022-10-07T06:15:02.810Z,67.01
2022-10-07T06:20:02.703Z,67.01
2022-10-07T06:25:02.601Z,67.07
2022-10-07T06:30:02.513Z,67.08
2022-10-07T06:35:02.558Z,67.14
2022-10-07T06:40:02.371Z,67.18
2022-10-07T06:45:02.200Z,67.22
2022-10-07T06:50:02.006Z,67.24
2022-10-07T06:55:01.947Z,67.28
2022-10-07T07:00:01.821Z,67.29
2022-10-07T07:10:02.471Z,67.36
2022-10-07T07:15:02.281Z,67.37
2022-10-07T07:20:02.172Z,67.38
2022-10-07T07:25:01.986Z,67.39
2022-10-07T07:30:01.750Z,67.4
2022-10-07T07:35:02.522Z,67.44
2022-10-07T07:40:02.339Z,67.45
2022-10-07T07:45:02.178Z,67.42
2022-10-07T07:50:01.965Z,67.46
2022-10-07T07:55:01.727Z,67.46
2022-10-07T08:00:02.518Z,67.47
2022-10-07T08:05:02.292Z,67.48
2022-10-07T08:10:02.167Z,67.44
2022-10-07T08:15:02.058Z,67.45
2022-10-07T08:20:01.900Z,67.46
2022-10-07T08:25:02.769Z,67.44
2022-10-07T08:30:02.573Z,67.43
2022-10-07T08:35:02.404Z,67.46
2022-10-07T08:40:02.221Z,67.42
2022-10-07T08:45:02.149Z,67.38
2022-10-07T08:50:02.106Z,67.34
2022-10-07T08:55:02.079Z,67.32
2022-10-07T09:00:01.891Z,67.3
2022-10-07T09:05:02.828Z,67.23
2022-10-07T09:10:02.779Z,67.19
2022-10-07T09:15:02.710Z,67.15
2022-10-07T09:20:02.511Z,67.12
2022-10-07T09:25:03.126Z,67.05
2022-10-07T09:30:02.499Z,67.03
2022-10-07T09:35:02.347Z,67.01
2022-10-07T09:40:02.129Z,66.92
2022-10-07T09:45:01.976Z,66.89
2022-10-07T09:50:01.843Z,66.83
2022-10-07T09:55:02.686Z,66.78
2022-10-07T10:00:11.858Z,66.7
2022-10-07T10:05:02.724Z,66.67
2022-10-07T10:10:02.534Z,66.64
2022-10-07T10:15:02.412Z,66.58
2022-10-07T10:20:02.375Z,66.52
2022-10-07T10:25:02.358Z,66.43
2022-10-07T10:30:02.300Z,66.38
2022-10-07T10:35:02.084Z,66.27
2022-10-07T10:40:01.919Z,66.19
2022-10-07T10:45:02.795Z,66.11
2022-10-07T10:50:02.618Z,66.06
2022-10-07T10:55:02.504Z,65.96
2022-10-07T11:00:02.417Z,65.91
2022-10-07T11:05:12.168Z,65.82
2022-10-07T11:10:02.244Z,65.74
2022-10-07T11:15:02.363Z,65.63
2022-10-07T11:20:02.181Z,65.58
2022-10-07T11:25:02.147Z,65.48
2022-10-07T11:30:02.159Z,65.43
2022-10-07T11:35:02.139Z,65.37
2022-10-07T11:40:02.123Z,65.34
2022-10-07T11:45:02.087Z,65.23
2022-10-07T11:50:05.037Z,65.18
2022-10-07T11:55:06.970Z,65.12
2022-10-07T12:00:11.721Z,65.09
2022-10-07T12:05:02.548Z,64.96
2022-10-07T12:10:02.325Z,64.93
2022-10-07T12:15:02.220Z,64.86
2022-10-07T12:20:02.050Z,64.84
2022-10-07T12:25:01.845Z,64.7
2022-10-07T12:30:02.894Z,64.63
2022-10-07T12:35:02.754Z,64.58
2022-10-07T12:40:02.608Z,64.55
2022-10-07T12:45:02.475Z,64.52
2022-10-07T12:50:02.250Z,64.48
2022-10-07T12:55:02.220Z,64.45
2022-10-07T13:00:02.109Z,64.4
2022-10-07T13:05:01.980Z,64.33
2022-10-07T13:10:01.947Z,64.27
2022-10-07T13:15:11.755Z,64.2
2022-10-07T13:20:02.592Z,64.19
2022-10-07T13:25:02.401Z,64.12
2022-10-07T13:30:02.287Z,64.08
2022-10-07T13:35:02.097Z,64.03
2022-10-07T13:40:01.879Z,64.03
2022-10-07T13:45:02.746Z,63.97
2022-10-07T13:50:02.594Z,63.97
2022-10-07T13:55:02.424Z,63.92
2022-10-07T14:00:02.245Z,63.91
2022-10-07T14:05:02.207Z,63.89
2022-10-07T14:10:02.119Z,63.91
2022-10-07T14:15:02.069Z,63.86
2022-10-07T14:20:02.096Z,63.83
2022-10-07T14:25:01.985Z,63.84
2022-10-07T14:30:02.007Z,63.83
2022-10-07T14:35:01.935Z,63.84
2022-10-07T14:40:01.868Z,63.81
2022-10-07T14:45:02.762Z,63.79
2022-10-07T14:50:02.562Z,63.77
2022-10-07T14:55:02.422Z,63.77
2022-10-07T15:00:02.272Z,63.77
2022-10-07T15:05:02.148Z,63.77
2022-10-07T15:10:01.970Z,63.77
2022-10-07T15:15:01.906Z,63.74
2022-10-07T15:20:02.757Z,63.74
2022-10-07T15:25:02.445Z,63.7
2022-10-07T15:30:02.271Z,63.7
2022-10-07T15:35:02.061Z,63.7
2022-10-07T15:40:01.908Z,63.71
2022-10-07T15:45:02.724Z,63.69
2022-10-07T15:50:02.574Z,63.69
2022-10-07T15:55:06.665Z,63.69
2022-10-07T16:00:02.614Z,63.68
2022-10-07T16:05:02.445Z,63.66
2022-10-07T16:10:02.258Z,63.67
2022-10-07T16:15:01.976Z,63.66
2022-10-07T16:20:01.865Z,63.65
2022-10-07T16:25:02.678Z,63.64
2022-10-07T16:30:02.497Z,63.64
2022-10-07T16:35:02.338Z,63.63
2022-10-07T16:40:02.204Z,63.61
2022-10-07T16:45:01.985Z,63.64
2022-10-07T16:50:01.972Z,63.61
2022-10-07T16:55:01.885Z,63.66
2022-10-07T17:00:02.824Z,63.72
2022-10-07T17:05:02.807Z,63.77
2022-10-07T17:10:02.691Z,63.81
2022-10-07T17:15:02.624Z,63.85
2022-10-07T17:20:02.840Z,63.88
2022-10-07T17:25:02.763Z,63.9
2022-10-07T17:30:02.735Z,63.95
2022-10-07T17:35:02.554Z,63.97
2022-10-07T17:40:02.456Z,63.97
2022-10-07T17:45:02.295Z,63.99
2022-10-07T17:50:02.261Z,63.99
2022-10-07T17:55:02.042Z,64.06
2022-10-07T18:00:01.922Z,64.07
2022-10-07T18:05:02.807Z,64.08
2022-10-07T18:10:02.691Z,64.09
2022-10-07T18:15:02.488Z,64.12
2022-10-07T18:20:02.416Z,64.13
2022-10-07T18:25:02.317Z,64.14
2022-10-07T18:30:02.068Z,64.15
2022-10-07T18:35:01.898Z,64.17
2022-10-07T18:40:02.756Z,64.2
2022-10-07T18:45:02.622Z,64.22
2022-10-07T18:50:02.391Z,64.25
2022-10-07T18:55:02.165Z,64.25
2022-10-07T19:00:02.119Z,64.28
2022-10-07T19:05:01.905Z,64.28
2022-10-07T19:10:02.655Z,64.32
2022-10-07T19:15:02.475Z,64.32
2022-10-07T19:20:02.325Z,64.34
2022-10-07T19:25:02.196Z,64.36
2022-10-07T19:30:02.179Z,64.37
2022-10-07T19:35:02.085Z,64.39
2022-10-07T19:40:02.040Z,64.41
2022-10-07T19:45:02.032Z,64.42
2022-10-07T19:50:01.866Z,64.44
2022-10-07T19:55:02.671Z,64.44
2022-10-07T20:00:02.570Z,64.47
2022-10-07T20:05:02.548Z,64.47
2022-10-07T20:10:02.329Z,64.5
2022-10-07T20:15:02.154Z,64.52
2022-10-07T20:20:02.086Z,64.52
2022-10-07T20:25:02.018Z,64.55
2022-10-07T20:30:01.848Z,64.58
2022-10-07T20:35:08.561Z,64.55
2022-10-07T20:40:08.298Z,64.58
2022-10-07T20:45:07.989Z,64.58
2022-10-07T20:50:07.683Z,64.6
2022-10-07T20:55:08.373Z,64.63
2022-10-07T21:00:08.051Z,64.63
2022-10-07T21:05:07.756Z,64.65
2022-10-07T21:10:08.457Z,64.67
2022-10-07T21:15:08.114Z,64.67
2022-10-07T21:20:07.821Z,64.65
2022-10-07T21:25:08.527Z,64.68
2022-10-07T21:30:08.221Z,64.69
2022-10-07T21:35:07.925Z,64.69
2022-10-07T21:40:08.638Z,64.71
2022-10-07T21:45:08.322Z,64.72
2022-10-07T21:50:08.038Z,64.73
2022-10-07T21:55:07.746Z,64.75
2022-10-07T22:00:08.468Z,64.75
2022-10-07T22:05:08.157Z,64.81
2022-10-07T22:10:07.855Z,64.78
2022-10-07T22:15:08.520Z,64.8
2022-10-07T22:20:08.267Z,64.83
2022-10-07T22:25:07.940Z,64.81
2022-10-07T22:30:07.621Z,64.82
2022-10-07T22:35:08.317Z,64.83
2022-10-07T22:40:07.977Z,64.84
2022-10-07T22:45:07.667Z,64.87
2022-10-07T22:50:08.380Z,64.85
2022-10-07T22:55:08.066Z,64.87
2022-10-07T23:01:01.089Z,64.86
2022-10-07T23:05:07.827Z,64.88
2022-10-07T23:10:07.732Z,64.89
2022-10-07T23:15:08.408Z,64.88
2022-10-07T23:20:08.124Z,64.88
2022-10-07T23:25:07.851Z,64.9
2022-10-07T23:30:08.541Z,64.9
2022-10-07T23:35:08.225Z,64.89
2022-10-07T23:40:07.928Z,64.92
2022-10-07T23:45:08.608Z,64.95
2022-10-07T23:50:08.346Z,64.96
2022-10-07T23:55:08.025Z,64.95
